Time;durP1;ratioP1;P1;durP2;ratioP2;P2;SDS_P1;SDS_P2;PMS_P1;PMS_P2;Temp;Humidity;BMP_temperature;BMP_pressure;BME280_temperature;BME280_humidity;BME280_pressure;Samples;Min_cycle;Max_cycle;Signal;HPM_P1;HPM_P2
2021/01/14 00:01:19;;;;;;;6.43;2.80;;;1.30;99.90;;;;;;6163511;23;20423;-79
2021/01/14 00:03:47;;;;;;;8.30;2.80;;;1.30;99.90;;;;;;6164528;23;20814;-79
2021/01/14 00:06:14;;;;;;;4.60;2.20;;;1.30;99.90;;;;;;6163934;23;20438;-79
2021/01/14 00:08:47;;;;;;;6.50;2.67;;;1.30;99.90;;;;;;6163791;23;20467;-79
2021/01/14 00:11:16;;;;;;;5.40;2.93;;;1.30;99.90;;;;;;6164529;23;20773;-79
2021/01/14 00:13:44;;;;;;;3.60;2.60;;;1.30;99.90;;;;;;6164352;23;20752;-79
2021/01/14 00:16:11;;;;;;;8.83;4.20;;;1.30;99.90;;;;;;6164731;23;20769;-79
2021/01/14 00:18:38;;;;;;;2.80;2.20;;;1.30;99.90;;;;;;6164295;23;20431;-79
2021/01/14 00:21:07;;;;;;;3.90;2.60;;;1.30;99.90;;;;;;6163967;23;20755;-80
2021/01/14 00:23:34;;;;;;;3.30;1.73;;;1.30;99.90;;;;;;6164398;23;20450;-79
2021/01/14 00:26:02;;;;;;;4.30;2.60;;;1.30;99.90;;;;;;6200324;23;20706;-79
2021/01/14 00:28:30;;;;;;;3.13;1.63;;;1.30;99.90;;;;;;6163462;23;20518;-79
2021/01/14 00:30:57;;;;;;;3.73;1.83;;;1.30;99.90;;;;;;6163903;23;20518;-79
2021/01/14 00:33:24;;;;;;;3.53;2.03;;;1.30;99.90;;;;;;6163984;23;20466;-79
2021/01/14 00:35:51;;;;;;;3.43;2.17;;;1.40;99.90;;;;;;6164394;23;20506;-79
2021/01/14 00:38:20;;;;;;;4.10;2.27;;;1.40;99.90;;;;;;6163061;23;20439;-79
2021/01/14 00:40:47;;;;;;;3.37;1.70;;;1.40;99.90;;;;;;6163320;23;20922;-79
2021/01/14 00:43:16;;;;;;;4.43;2.00;;;1.40;99.90;;;;;;6199024;23;20395;-79
2021/01/14 00:45:43;;;;;;;5.10;2.00;;;1.40;99.90;;;;;;6163126;23;20412;-79
2021/01/14 00:48:11;;;;;;;5.00;2.10;;;1.40;99.90;;;;;;6162294;23;20439;-79
2021/01/14 00:50:38;;;;;;;3.83;1.80;;;1.40;99.90;;;;;;6199238;23;20397;-79
2021/01/14 00:53:09;;;;;;;3.80;2.13;;;1.50;99.90;;;;;;6199383;23;20488;-79
2021/01/14 00:55:36;;;;;;;4.23;1.70;;;1.40;99.90;;;;;;6162788;23;20421;-79
2021/01/14 00:58:03;;;;;;;2.27;1.60;;;1.50;99.90;;;;;;6199610;23;20432;-79
2021/01/14 01:00:32;;;;;;;3.03;1.97;;;1.50;99.90;;;;;;6162762;23;20427;-79
2021/01/14 01:03:00;;;;;;;6.13;1.93;;;1.50;99.90;;;;;;6162977;23;20446;-79
2021/01/14 01:05:27;;;;;;;4.97;2.20;;;1.50;99.90;;;;;;6163027;23;20499;-79
2021/01/14 01:07:57;;;;;;;4.53;1.83;;;1.50;99.90;;;;;;6198668;23;20392;-79
2021/01/14 01:10:26;;;;;;;6.47;2.17;;;1.60;99.90;;;;;;6163381;23;20168;-79
2021/01/14 01:12:55;;;;;;;4.97;2.00;;;1.60;99.90;;;;;;6162626;23;20533;-79
2021/01/14 01:15:24;;;;;;;4.67;2.10;;;1.60;99.90;;;;;;6164249;23;20423;-79
2021/01/14 01:17:53;;;;;;;3.20;2.07;;;1.60;99.90;;;;;;6162588;23;20475;-79
2021/01/14 01:20:20;;;;;;;3.77;2.13;;;1.60;99.90;;;;;;6162562;23;20805;-79
2021/01/14 01:22:47;;;;;;;5.23;2.40;;;1.60;99.90;;;;;;6162677;23;20415;-79
2021/01/14 01:25:15;;;;;;;2.60;1.70;;;1.60;99.90;;;;;;6199567;23;20875;-79
2021/01/14 01:27:44;;;;;;;3.00;2.03;;;1.50;99.90;;;;;;6199004;23;20392;-79
2021/01/14 01:30:13;;;;;;;7.37;2.90;;;1.50;99.90;;;;;;6162476;23;20451;-79
2021/01/14 01:32:42;;;;;;;4.20;2.00;;;1.50;99.90;;;;;;6162300;23;20426;-79
2021/01/14 01:35:11;;;;;;;5.00;2.07;;;1.50;99.90;;;;;;6162695;23;20427;-79
2021/01/14 01:37:38;;;;;;;5.87;2.20;;;1.50;99.90;;;;;;6162615;23;20443;-79
2021/01/14 01:40:07;;;;;;;5.37;2.40;;;1.40;99.90;;;;;;6162600;23;20948;-79
2021/01/14 01:42:34;;;;;;;4.00;1.90;;;1.50;99.90;;;;;;6199849;23;20455;-80
2021/01/14 01:45:01;;;;;;;6.43;2.77;;;1.40;99.90;;;;;;6162765;23;20512;-80
2021/01/14 01:47:33;;;;;;;3.10;2.23;;;1.40;99.90;;;;;;6199846;23;20424;-80
2021/01/14 01:50:03;;;;;;;4.00;2.70;;;1.40;99.90;;;;;;6199308;23;20423;-79
2021/01/14 01:52:34;;;;;;;3.83;2.27;;;1.40;99.90;;;;;;6163252;23;20448;-79
2021/01/14 01:55:02;;;;;;;3.67;2.20;;;1.40;99.90;;;;;;6200013;23;20416;-79
2021/01/14 01:57:29;;;;;;;4.00;2.10;;;1.40;99.90;;;;;;6162697;23;20526;-79
2021/01/14 01:59:56;;;;;;;3.60;2.03;;;1.30;99.90;;;;;;6162872;23;20443;-79
2021/01/14 02:02:25;;;;;;;5.33;1.97;;;1.40;99.90;;;;;;6163499;23;20478;-79
2021/01/14 02:04:54;;;;;;;3.37;1.97;;;1.40;99.90;;;;;;6199633;23;20397;-79
2021/01/14 02:07:44;;;;;;;4.17;2.60;;;1.40;99.90;;;;;;6166010;23;20781;-79
2021/01/14 02:10:20;;;;;;;2.63;2.10;;;1.30;99.90;;;;;;6162501;23;20459;-79
2021/01/14 02:13:12;;;;;;;4.93;2.40;;;1.30;99.90;;;;;;6162680;23;20433;-79
2021/01/14 02:15:40;;;;;;;4.10;2.17;;;1.30;99.90;;;;;;6163169;23;20408;-79
2021/01/14 02:18:08;;;;;;;5.40;3.13;;;1.30;99.90;;;;;;6200334;23;20423;-79
2021/01/14 02:20:36;;;;;;;2.60;2.20;;;1.30;99.90;;;;;;6163498;23;20447;-79
2021/01/14 02:23:16;;;;;;;3.53;2.80;;;1.30;99.90;;;;;;6198523;23;20407;-79
2021/01/14 02:26:04;;;;;;;4.60;2.30;;;1.20;99.90;;;;;;6162201;23;20856;-79
2021/01/14 02:28:35;;;;;;;5.60;3.10;;;1.20;99.90;;;;;;6161996;23;20498;-79
2021/01/14 02:31:05;;;;;;;6.00;2.30;;;1.20;99.90;;;;;;6161942;23;20533;-79
2021/01/14 02:33:32;;;;;;;6.47;2.63;;;1.30;99.90;;;;;;6162417;23;20427;-79
2021/01/14 02:35:59;;;;;;;4.10;3.00;;;1.20;99.90;;;;;;6198326;23;20403;-79
2021/01/14 02:38:26;;;;;;;5.70;2.87;;;1.20;99.90;;;;;;6198258;23;20450;-79
2021/01/14 02:40:54;;;;;;;4.00;3.03;;;1.10;99.90;;;;;;6162921;23;20896;-79
2021/01/14 02:43:22;;;;;;;6.57;2.83;;;1.20;99.90;;;;;;6161361;23;20462;-79
2021/01/14 02:45:49;;;;;;;4.05;2.90;;;1.10;99.90;;;;;;6161449;23;20502;-79
2021/01/14 02:48:20;;;;;;;5.60;3.10;;;1.20;99.90;;;;;;6198299;23;20180;-79
2021/01/14 02:50:58;;;;;;;6.20;3.40;;;1.20;99.90;;;;;;6161698;23;20420;-79
2021/01/14 02:53:26;;;;;;;5.40;3.13;;;1.20;99.90;;;;;;6161821;23;20419;-79
2021/01/14 02:55:54;;;;;;;6.67;3.60;;;1.20;99.90;;;;;;6161985;23;20420;-79
2021/01/14 02:58:22;;;;;;;6.20;3.60;;;1.20;99.90;;;;;;6198488;23;20439;-79
2021/01/14 03:00:49;;;;;;;7.03;4.23;;;1.20;99.90;;;;;;6198938;23;20451;-79
2021/01/14 03:03:16;;;;;;;5.23;3.40;;;1.20;99.90;;;;;;6162441;23;20475;-79
2021/01/14 03:05:43;;;;;;;6.23;3.73;;;1.20;99.90;;;;;;6162148;23;20451;-79
2021/01/14 03:08:11;;;;;;;7.20;3.40;;;1.20;99.90;;;;;;6162078;23;20489;-79
2021/01/14 03:10:38;;;;;;;5.17;3.17;;;1.10;99.90;;;;;;6162083;23;20415;-79
2021/01/14 03:13:09;;;;;;;7.73;4.00;;;1.10;99.90;;;;;;6161977;23;20419;-79
2021/01/14 03:15:36;;;;;;;6.53;3.93;;;1.20;99.90;;;;;;6198789;23;20938;-79
2021/01/14 03:18:03;;;;;;;8.33;3.10;;;1.20;99.90;;;;;;6199319;23;20475;-79
2021/01/14 03:20:30;;;;;;;4.73;3.63;;;1.10;99.90;;;;;;6200054;23;20415;-79
2021/01/14 03:22:58;;;;;;;6.33;3.90;;;1.20;99.90;;;;;;6200874;23;20443;-79
2021/01/14 03:25:25;;;;;;;6.13;3.80;;;1.20;99.90;;;;;;6163903;23;20427;-79
2021/01/14 03:27:54;;;;;;;7.17;3.97;;;1.20;99.90;;;;;;6163846;23;20419;-79
2021/01/14 03:30:22;;;;;;;6.33;5.00;;;1.10;99.90;;;;;;6163802;23;20425;-79
2021/01/14 03:32:50;;;;;;;6.03;4.53;;;1.10;99.90;;;;;;6164400;23;20763;-79
2021/01/14 03:35:17;;;;;;;6.90;3.80;;;1.10;99.90;;;;;;6200644;23;20439;-79
2021/01/14 03:37:44;;;;;;;7.10;3.80;;;1.10;99.90;;;;;;6164010;23;20435;-79
2021/01/14 03:40:12;;;;;;;9.03;3.80;;;1.10;99.90;;;;;;6163293;23;21010;-79
2021/01/14 03:42:40;;;;;;;5.50;4.00;;;1.10;99.90;;;;;;6163517;23;20411;-79
2021/01/14 03:45:08;;;;;;;5.33;4.50;;;1.10;99.90;;;;;;6199705;23;20795;-79
2021/01/14 03:47:38;;;;;;;7.53;5.30;;;1.10;99.90;;;;;;6199584;23;20396;-79
2021/01/14 03:50:06;;;;;;;7.00;4.67;;;1.10;99.90;;;;;;6199436;23;20985;-79
2021/01/14 03:52:33;;;;;;;6.80;4.13;;;1.10;99.90;;;;;;6199973;23;20411;-79
2021/01/14 03:55:01;;;;;;;6.77;5.00;;;1.10;99.90;;;;;;6163379;23;20834;-79
2021/01/14 03:57:32;;;;;;;9.67;6.07;;;1.10;99.90;;;;;;6163854;23;20431;-79
2021/01/14 04:00:04;;;;;;;6.93;4.83;;;1.10;99.90;;;;;;6199882;23;20443;-79
2021/01/14 04:02:39;;;;;;;7.50;5.43;;;1.20;99.90;;;;;;6190067;23;20395;-80
2021/01/14 04:05:09;;;;;;;5.07;4.47;;;1.20;99.90;;;;;;6163376;23;20794;-78
2021/01/14 04:07:36;;;;;;;5.93;4.70;;;1.20;99.90;;;;;;6163364;23;20404;-79
2021/01/14 04:10:04;;;;;;;9.27;5.57;;;1.20;99.90;;;;;;6199966;23;20439;-79
2021/01/14 04:12:31;;;;;;;7.90;5.97;;;1.20;99.90;;;;;;6200228;23;20387;-79
2021/01/14 04:14:59;;;;;;;6.90;5.30;;;1.20;99.90;;;;;;6163723;23;20418;-79
2021/01/14 04:17:26;;;;;;;6.37;4.80;;;1.30;99.90;;;;;;6163497;23;20993;-79
2021/01/14 04:19:54;;;;;;;8.37;6.77;;;1.30;99.90;;;;;;6163306;23;20466;-79
2021/01/14 04:22:22;;;;;;;8.37;5.63;;;1.30;99.90;;;;;;6163432;23;20415;-79
2021/01/14 04:24:50;;;;;;;7.90;5.53;;;1.30;99.90;;;;;;6163200;23;20403;-79
2021/01/14 04:27:17;;;;;;;8.63;6.43;;;1.30;99.90;;;;;;6199721;23;20396;-79
2021/01/14 04:29:44;;;;;;;8.10;4.97;;;1.40;99.90;;;;;;6163056;23;20499;-79
2021/01/14 04:32:11;;;;;;;21.60;7.70;;;1.40;99.90;;;;;;6163433;23;20451;-79
2021/01/14 04:34:39;;;;;;;8.97;5.60;;;1.40;99.90;;;;;;6163857;23;20479;-79
2021/01/14 04:37:07;;;;;;;7.47;5.80;;;1.40;99.90;;;;;;6163578;23;20432;-79
2021/01/14 04:39:34;;;;;;;11.70;6.50;;;1.40;99.90;;;;;;6163669;23;20431;-79
2021/01/14 04:42:03;;;;;;;11.40;6.93;;;1.40;99.90;;;;;;6163412;23;20516;-79
2021/01/14 04:44:30;;;;;;;9.30;5.90;;;1.50;99.90;;;;;;6163770;23;20466;-79
2021/01/14 04:47:04;;;;;;;7.57;5.87;;;1.50;99.90;;;;;;6162593;23;20508;-79
2021/01/14 04:49:31;;;;;;;9.53;6.70;;;1.50;99.90;;;;;;6163026;23;20432;-79
2021/01/14 04:52:03;;;;;;;6.40;5.77;;;1.50;99.90;;;;;;6163439;23;20513;-79
2021/01/14 04:54:34;;;;;;;7.10;6.03;;;1.50;99.90;;;;;;6163420;23;20400;-79
2021/01/14 04:57:05;;;;;;;8.87;6.17;;;1.60;99.90;;;;;;6199625;23;20422;-79
2021/01/14 04:59:37;;;;;;;8.40;5.90;;;1.50;99.90;;;;;;6163347;23;20444;-79
2021/01/14 05:02:10;;;;;;;7.93;6.33;;;1.60;99.90;;;;;;6163473;23;20419;-79
2021/01/14 05:04:41;;;;;;;7.20;6.20;;;1.60;99.90;;;;;;6200675;23;20426;-79
2021/01/14 05:07:10;;;;;;;12.00;7.20;;;1.60;99.90;;;;;;6163461;23;20431;-79
2021/01/14 05:09:41;;;;;;;10.33;6.70;;;1.60;99.90;;;;;;6164310;23;20439;-79
2021/01/14 05:12:09;;;;;;;9.27;6.33;;;1.60;99.90;;;;;;6201979;23;20381;-78
2021/01/14 05:14:37;;;;;;;7.23;6.47;;;1.60;99.90;;;;;;6165233;23;20404;-78
2021/01/14 05:17:05;;;;;;;12.33;7.37;;;1.60;99.90;;;;;;6165034;23;20440;-79
2021/01/14 05:19:32;;;;;;;8.50;7.20;;;1.60;99.90;;;;;;6162850;23;20829;-79
2021/01/14 05:22:06;;;;;;;7.73;6.50;;;1.60;99.90;;;;;;6162936;23;20423;-79
2021/01/14 05:24:33;;;;;;;9.43;6.77;;;1.60;99.90;;;;;;6163011;23;20457;-78
2021/01/14 05:27:01;;;;;;;8.07;7.20;;;1.60;99.90;;;;;;6162727;23;20451;-79
2021/01/14 05:29:29;;;;;;;9.97;7.63;;;1.60;99.90;;;;;;6198854;23;20419;-79
2021/01/14 05:31:56;;;;;;;9.73;6.97;;;1.60;99.90;;;;;;6163056;23;20451;-79
2021/01/14 05:34:24;;;;;;;9.70;7.80;;;1.60;99.90;;;;;;6162098;23;20411;-79
2021/01/14 05:36:56;;;;;;;8.30;6.93;;;1.70;99.90;;;;;;6199026;23;20726;-79
2021/01/14 05:39:24;;;;;;;9.23;7.80;;;1.70;99.90;;;;;;6162519;23;20435;-79
2021/01/14 05:41:52;;;;;;;8.53;6.87;;;1.70;99.90;;;;;;6162489;23;20411;-79
2021/01/14 05:44:35;;;;;;;8.53;7.20;;;1.70;99.90;;;;;;6162276;23;20486;-79
2021/01/14 05:47:19;;;;;;;8.33;6.53;;;1.70;99.90;;;;;;6162549;23;20954;-79
2021/01/14 05:49:56;;;;;;;9.43;7.60;;;1.70;99.90;;;;;;6199867;23;20412;-79
2021/01/14 05:52:25;;;;;;;8.80;6.83;;;1.70;99.90;;;;;;6162705;23;20414;-79
2021/01/14 05:55:03;;;;;;;8.40;7.30;;;1.70;99.90;;;;;;6162594;23;20551;-79
2021/01/14 05:57:33;;;;;;;8.47;7.33;;;1.70;99.90;;;;;;6199225;23;20418;-79
2021/01/14 06:00:08;;;;;;;8.00;7.20;;;1.70;99.90;;;;;;6162353;23;20522;-79
2021/01/14 06:02:35;;;;;;;7.17;6.43;;;1.70;99.90;;;;;;6163050;23;20419;-79
2021/01/14 06:05:03;;;;;;;10.70;8.00;;;1.70;99.90;;;;;;6161646;23;20886;-80
2021/01/14 06:07:40;;;;;;;10.50;8.37;;;1.70;99.90;;;;;;6162765;23;20435;-79
2021/01/14 06:10:09;;;;;;;9.83;6.37;;;1.70;99.90;;;;;;6162218;23;20466;-79
2021/01/14 06:12:49;;;;;;;10.07;7.47;;;1.70;99.90;;;;;;6163609;23;20411;-79
2021/01/14 06:15:17;;;;;;;9.93;7.60;;;1.70;99.90;;;;;;6167227;23;20404;-79
2021/01/14 06:17:45;;;;;;;10.70;7.23;;;1.70;99.90;;;;;;6166916;23;20459;-79
2021/01/14 06:20:13;;;;;;;10.70;7.60;;;1.70;99.90;;;;;;6166177;23;20436;-79
2021/01/14 06:26:44;;;;;;;9.63;7.53;;;1.70;99.90;;;;;;6165865;23;20396;-79
2021/01/14 06:29:19;;;;;;;10.60;7.33;;;1.70;99.90;;;;;;6167057;23;20431;-79
2021/01/14 06:31:48;;;;;;;9.53;8.40;;;1.60;99.90;;;;;;6166639;23;20419;-79
2021/01/14 06:34:17;;;;;;;8.87;7.60;;;1.60;99.90;;;;;;6167730;23;20506;-79
2021/01/14 06:36:50;;;;;;;12.50;7.87;;;1.60;99.90;;;;;;6166479;23;20419;-79
2021/01/14 06:39:19;;;;;;;9.10;8.07;;;1.60;99.90;;;;;;6167927;23;20457;-79
2021/01/14 06:41:55;;;;;;;11.53;8.73;;;1.60;99.90;;;;;;6168177;23;20421;-79
2021/01/14 06:44:27;;;;;;;9.60;7.83;;;1.60;99.90;;;;;;6205171;23;20376;-79
2021/01/14 06:47:03;;;;;;;11.03;6.87;;;1.70;99.90;;;;;;6168566;23;20800;-79
2021/01/14 06:49:37;;;;;;;11.07;8.20;;;1.60;99.90;;;;;;6203234;23;20409;-79
2021/01/14 06:52:09;;;;;;;9.90;7.90;;;1.70;99.90;;;;;;6167526;23;20403;-79
2021/01/14 06:54:39;;;;;;;11.27;8.33;;;1.60;99.90;;;;;;6169373;23;20410;-79
2021/01/14 06:57:13;;;;;;;16.87;7.97;;;1.60;99.90;;;;;;6168756;23;20494;-79
2021/01/14 06:59:40;;;;;;;10.10;8.00;;;1.70;99.90;;;;;;6168628;23;20443;-79
2021/01/14 07:02:45;;;;;;;9.87;7.47;;;1.60;99.90;;;;;;6168318;23;20418;-79
2021/01/14 07:05:22;;;;;;;11.80;8.37;;;1.70;99.90;;;;;;6169229;23;20426;-79
2021/01/14 07:08:01;;;;;;;9.60;8.53;;;1.70;99.90;;;;;;6205420;23;20371;-79
2021/01/14 07:10:31;;;;;;;10.30;8.50;;;1.60;99.90;;;;;;6168353;23;20408;-79
2021/01/14 07:13:03;;;;;;;11.57;7.83;;;1.60;99.90;;;;;;6166768;23;20934;-79
2021/01/14 07:15:36;;;;;;;9.43;8.43;;;1.60;99.90;;;;;;6204190;23;20906;-79
2021/01/14 07:18:05;;;;;;;10.73;8.10;;;1.60;99.90;;;;;;6167081;23;20433;-79
2021/01/14 07:20:33;;;;;;;9.87;8.87;;;1.70;99.90;;;;;;6166763;23;20419;-79
2021/01/14 07:23:05;;;;;;;8.90;7.97;;;1.60;99.90;;;;;;6167256;23;20418;-79
2021/01/14 07:25:32;;;;;;;9.10;8.20;;;1.60;99.90;;;;;;6203936;23;20377;-79
2021/01/14 07:27:59;;;;;;;9.97;8.83;;;1.70;99.90;;;;;;6203498;23;20480;-79
2021/01/14 07:30:27;;;;;;;10.80;9.17;;;1.60;99.90;;;;;;6196582;23;20740;-79
2021/01/14 07:33:04;;;;;;;9.43;7.80;;;1.70;99.90;;;;;;6165750;23;20415;-79
2021/01/14 07:35:36;;;;;;;11.27;10.13;;;1.70;99.90;;;;;;6166821;23;20732;-79
2021/01/14 07:38:05;;;;;;;12.97;11.13;;;1.70;99.90;;;;;;6203653;23;20524;-79
2021/01/14 07:40:34;;;;;;;10.40;8.33;;;1.60;99.90;;;;;;6167168;23;20458;-79
2021/01/14 07:43:03;;;;;;;9.20;7.77;;;1.70;99.90;;;;;;6166989;23;20424;-79
2021/01/14 07:45:33;;;;;;;10.20;8.27;;;1.60;99.90;;;;;;6202989;23;20384;-79
2021/01/14 07:48:19;;;;;;;10.90;8.87;;;1.70;99.90;;;;;;6167479;23;20412;-79
2021/01/14 07:50:52;;;;;;;10.30;8.60;;;1.70;99.90;;;;;;6168751;23;20440;-79
2021/01/14 07:53:20;;;;;;;11.60;9.00;;;1.70;99.90;;;;;;6169886;23;20797;-79
2021/01/14 07:55:47;;;;;;;9.70;8.70;;;1.70;99.90;;;;;;6169389;23;20497;-79
2021/01/14 07:58:23;;;;;;;11.00;8.10;;;1.70;99.90;;;;;;6206393;23;20439;-79
2021/01/14 08:01:05;;;;;;;12.37;8.37;;;1.70;99.90;;;;;;6170326;23;20473;-79
2021/01/14 08:03:34;;;;;;;9.20;8.00;;;1.70;99.90;;;;;;6176686;23;20415;-79
2021/01/14 08:06:19;;;;;;;9.63;7.73;;;1.70;99.90;;;;;;6176810;23;20415;-79
2021/01/14 08:08:58;;;;;;;11.40;9.50;;;1.70;99.90;;;;;;6217030;23;20412;-79
2021/01/14 08:11:27;;;;;;;9.20;8.23;;;1.70;99.90;;;;;;6181685;23;20438;-79
2021/01/14 08:14:06;;;;;;;8.90;8.00;;;1.70;99.90;;;;;;6216500;23;20419;-79
2021/01/14 08:16:35;;;;;;;9.60;8.13;;;1.70;99.90;;;;;;6168145;23;20982;-79
2021/01/14 08:19:11;;;;;;;8.77;7.93;;;1.70;99.90;;;;;;6168774;23;20470;-79
2021/01/14 08:21:39;;;;;;;8.63;7.00;;;1.70;99.90;;;;;;6169858;23;20484;-79
2021/01/14 08:24:32;;;;;;;8.70;6.97;;;1.70;99.90;;;;;;6170282;23;20411;-79
2021/01/14 08:27:01;;;;;;;8.83;6.93;;;1.70;99.90;;;;;;6169621;23;20478;-79
2021/01/14 08:29:30;;;;;;;9.40;8.10;;;1.70;99.90;;;;;;6166611;23;20470;-79
2021/01/14 08:31:57;;;;;;;9.30;8.17;;;1.70;99.90;;;;;;6165798;23;20416;-79
2021/01/14 08:34:50;;;;;;;12.70;7.17;;;1.70;99.90;;;;;;6202489;23;20415;-79
2021/01/14 08:37:31;;;;;;;8.90;8.00;;;1.70;99.90;;;;;;6165373;23;20409;-79
2021/01/14 08:40:00;;;;;;;9.10;7.30;;;1.70;99.90;;;;;;6166330;23;20765;-79
2021/01/14 08:42:32;;;;;;;10.10;7.90;;;1.70;99.90;;;;;;6166046;23;20776;-79
2021/01/14 08:45:27;;;;;;;10.33;9.23;;;1.70;99.90;;;;;;6202469;23;20411;-79
2021/01/14 08:48:06;;;;;;;10.77;8.07;;;1.80;99.90;;;;;;6140372;23;20467;-79
2021/01/14 08:50:47;;;;;;;9.70;8.10;;;1.80;99.90;;;;;;6202950;23;20420;-79
2021/01/14 08:53:29;;;;;;;8.47;7.37;;;1.80;99.90;;;;;;6166524;23;20470;-79
2021/01/14 08:55:58;;;;;;;9.07;7.77;;;1.80;99.90;;;;;;6165611;23;20409;-79
2021/01/14 08:58:39;;;;;;;8.97;7.40;;;1.80;99.90;;;;;;6165247;23;20813;-79
2021/01/14 09:01:15;;;;;;;10.07;6.93;;;1.80;99.90;;;;;;6164957;23;20435;-79
2021/01/14 09:03:43;;;;;;;7.73;6.80;;;1.80;99.90;;;;;;6165619;23;20414;-79
2021/01/14 09:06:10;;;;;;;8.37;7.37;;;1.80;99.90;;;;;;6165223;23;20422;-79
2021/01/14 09:08:39;;;;;;;10.97;7.57;;;1.80;99.90;;;;;;6166234;23;20865;-79
2021/01/14 09:11:07;;;;;;;9.00;8.00;;;1.80;99.90;;;;;;6166226;23;20479;-79
2021/01/14 09:13:34;;;;;;;8.97;8.07;;;1.80;99.90;;;;;;6166073;23;20410;-79
2021/01/14 09:16:09;;;;;;;10.30;8.13;;;1.80;99.90;;;;;;6167658;23;20451;-79
2021/01/14 09:18:38;;;;;;;9.80;8.80;;;1.90;99.90;;;;;;6166017;23;20826;-79
2021/01/14 09:21:06;;;;;;;10.27;9.27;;;1.90;99.90;;;;;;6166025;23;20818;-79
2021/01/14 09:23:34;;;;;;;9.37;8.00;;;1.90;99.90;;;;;;6167055;23;20420;-79
2021/01/14 09:26:04;;;;;;;9.93;7.97;;;1.90;99.90;;;;;;6165742;23;20408;-79
2021/01/14 09:28:32;;;;;;;9.87;8.13;;;1.90;99.90;;;;;;6203772;23;20428;-79
2021/01/14 09:31:04;;;;;;;8.30;7.60;;;1.90;99.90;;;;;;6166279;23;21000;-79
2021/01/14 09:33:33;;;;;;;9.63;8.10;;;2.00;99.90;;;;;;6166812;23;20452;-79
2021/01/14 09:36:07;;;;;;;8.80;6.33;;;2.00;99.90;;;;;;6167208;23;20427;-79
2021/01/14 09:38:42;;;;;;;12.23;8.03;;;2.00;99.90;;;;;;6166871;23;20452;-79
2021/01/14 09:41:11;;;;;;;8.40;7.60;;;2.00;99.90;;;;;;6167331;23;20801;-79
2021/01/14 09:43:42;;;;;;;8.43;7.60;;;2.00;99.90;;;;;;6167839;23;20917;-79
2021/01/14 09:46:13;;;;;;;9.10;8.20;;;2.00;99.90;;;;;;6205081;23;20381;-79
2021/01/14 09:48:40;;;;;;;9.67;8.67;;;2.10;99.90;;;;;;6167646;23;20411;-79
2021/01/14 09:51:09;;;;;;;9.80;8.77;;;2.00;99.90;;;;;;6204544;23;20808;-79
2021/01/14 09:53:47;;;;;;;9.30;8.40;;;2.10;99.90;;;;;;6204130;23;20410;-78
2021/01/14 09:56:26;;;;;;;8.10;7.30;;;2.00;99.90;;;;;;6168214;23;20463;-79
2021/01/14 09:58:56;;;;;;;9.50;8.50;;;2.10;99.90;;;;;;6169324;23;20467;-79
2021/01/14 10:01:29;;;;;;;9.27;8.03;;;2.20;99.90;;;;;;6170006;23;20161;-79
2021/01/14 10:04:04;;;;;;;10.50;8.93;;;2.20;99.90;;;;;;6206235;23;20445;-79
2021/01/14 10:06:35;;;;;;;9.47;8.57;;;2.20;99.90;;;;;;6204419;23;20719;-79
2021/01/14 10:09:03;;;;;;;9.47;8.33;;;2.20;99.90;;;;;;6164760;23;20501;-79
2021/01/14 10:11:34;;;;;;;9.00;7.77;;;2.20;99.90;;;;;;6165543;23;20494;-79
2021/01/14 10:14:01;;;;;;;9.57;8.57;;;2.20;99.90;;;;;;6201541;23;20384;-79
2021/01/14 10:16:30;;;;;;;8.47;7.50;;;2.20;99.90;;;;;;6166590;23;20915;-79
2021/01/14 10:19:11;;;;;;;10.10;8.60;;;2.20;99.90;;;;;;6202082;23;20441;-79
2021/01/14 10:21:39;;;;;;;9.50;8.50;;;2.20;99.90;;;;;;6165373;23;20412;-79
2021/01/14 10:24:18;;;;;;;8.97;8.07;;;2.20;99.90;;;;;;6165270;23;20493;-79
2021/01/14 10:26:47;;;;;;;9.20;8.30;;;2.30;99.90;;;;;;6164350;23;20423;-79
2021/01/14 10:29:29;;;;;;;10.00;8.57;;;2.30;99.90;;;;;;6164696;23;20455;-79
2021/01/14 10:32:01;;;;;;;11.40;9.70;;;2.30;99.90;;;;;;6165729;23;20457;-79
2021/01/14 10:34:41;;;;;;;10.73;9.63;;;2.30;99.90;;;;;;6164827;23;20473;-79
2021/01/14 10:37:18;;;;;;;9.60;8.60;;;2.30;99.90;;;;;;6202276;23;20383;-79
2021/01/14 10:39:46;;;;;;;10.50;8.37;;;2.30;99.90;;;;;;6164522;23;20435;-79
2021/01/14 10:42:28;;;;;;;9.07;8.17;;;2.30;99.90;;;;;;6202525;23;20437;-79
2021/01/14 10:44:57;;;;;;;9.23;8.20;;;2.30;99.90;;;;;;6202595;23;20386;-79
2021/01/14 10:47:25;;;;;;;9.90;8.40;;;2.40;99.90;;;;;;6166649;23;20421;-79
2021/01/14 10:49:52;;;;;;;8.50;7.50;;;2.40;99.90;;;;;;6166565;23;20509;-79
2021/01/14 10:52:19;;;;;;;11.27;8.20;;;2.40;99.90;;;;;;6166434;23;20415;-79
2021/01/14 10:54:56;;;;;;;8.03;7.23;;;2.40;99.90;;;;;;6166576;23;20422;-79
2021/01/14 10:57:24;;;;;;;9.27;7.50;;;2.40;99.90;;;;;;6165975;23;20465;-79
2021/01/14 10:59:52;;;;;;;9.63;8.37;;;2.40;99.90;;;;;;6166540;23;20437;-79
2021/01/14 11:02:23;;;;;;;9.03;8.23;;;2.40;99.90;;;;;;6166780;23;20412;-79
2021/01/14 11:04:54;;;;;;;8.27;7.47;;;2.50;99.90;;;;;;6166704;23;20407;-79
2021/01/14 11:07:21;;;;;;;9.83;8.80;;;2.50;99.90;;;;;;6204351;23;20397;-79
2021/01/14 11:09:52;;;;;;;9.90;8.00;;;2.50;99.90;;;;;;6204385;23;20447;-79
2021/01/14 11:12:20;;;;;;;9.03;7.80;;;2.50;99.90;;;;;;6167121;23;20498;-79
2021/01/14 11:14:59;;;;;;;10.10;8.27;;;2.60;99.90;;;;;;6204313;23;20399;-79
2021/01/14 11:17:27;;;;;;;8.37;6.80;;;2.60;99.90;;;;;;6167329;23;20453;-79
2021/01/14 11:20:04;;;;;;;8.90;7.63;;;2.60;99.90;;;;;;6167822;23;20435;-79
2021/01/14 11:22:31;;;;;;;9.77;8.77;;;2.60;99.90;;;;;;6168065;23;20487;-79
2021/01/14 11:24:59;;;;;;;8.50;7.60;;;2.60;99.90;;;;;;6168277;23;20433;-79
2021/01/14 11:27:29;;;;;;;9.50;7.70;;;2.60;99.90;;;;;;6204857;23;20430;-79
2021/01/14 11:29:57;;;;;;;10.70;8.50;;;2.70;99.90;;;;;;6173093;23;20434;-79
2021/01/14 11:32:25;;;;;;;9.07;8.10;;;2.70;99.90;;;;;;6174420;23;20470;-79
2021/01/14 11:34:55;;;;;;;8.40;7.60;;;2.70;99.90;;;;;;6169300;23;20427;-79
2021/01/14 11:37:22;;;;;;;10.17;8.27;;;2.70;99.90;;;;;;6169630;23;20433;-79
2021/01/14 11:39:50;;;;;;;9.00;8.20;;;2.80;99.90;;;;;;6207720;23;20438;-79
2021/01/14 11:42:17;;;;;;;9.17;8.30;;;2.80;99.90;;;;;;6207617;23;20399;-79
2021/01/14 11:44:44;;;;;;;11.47;8.93;;;2.80;99.90;;;;;;6203011;23;20439;-79
2021/01/14 11:47:11;;;;;;;9.40;8.60;;;2.90;99.90;;;;;;6166751;23;20436;-79
2021/01/14 11:49:39;;;;;;;9.50;8.50;;;2.90;99.90;;;;;;6166224;23;20463;-79
2021/01/14 11:52:06;;;;;;;10.03;8.30;;;2.90;99.90;;;;;;6166791;23;20425;-79
2021/01/14 11:54:33;;;;;;;14.47;7.73;;;2.90;99.90;;;;;;6166730;23;20415;-79
2021/01/14 11:57:02;;;;;;;9.50;7.73;;;2.90;99.90;;;;;;6204059;23;20878;-79
2021/01/14 11:59:29;;;;;;;9.87;7.83;;;3.00;99.90;;;;;;6167964;23;21013;-79
2021/01/14 12:01:57;;;;;;;8.90;8.00;;;3.00;99.90;;;;;;6166995;23;20798;-79
2021/01/14 12:04:24;;;;;;;14.23;7.80;;;3.10;99.90;;;;;;6204600;23;20399;-79
2021/01/14 12:06:52;;;;;;;9.30;8.40;;;3.10;99.90;;;;;;6204168;23;20399;-79
2021/01/14 12:09:20;;;;;;;8.77;7.87;;;3.10;99.90;;;;;;6166804;23;21016;-79
2021/01/14 12:11:50;;;;;;;8.83;7.87;;;3.10;99.90;;;;;;6203704;23;20411;-79
2021/01/14 12:14:17;;;;;;;8.20;7.40;;;3.20;99.90;;;;;;6204508;23;20449;-79
2021/01/14 12:16:45;;;;;;;12.30;8.47;;;3.20;99.90;;;;;;6167207;23;20414;-79
2021/01/14 12:19:12;;;;;;;11.83;9.27;;;3.20;99.90;;;;;;6167043;23;20451;-79
2021/01/14 12:21:40;;;;;;;9.57;8.13;;;3.20;99.90;;;;;;6167309;23;20798;-79
2021/01/14 12:24:08;;;;;;;10.17;7.40;;;3.20;99.90;;;;;;6167901;23;20412;-79
2021/01/14 12:26:36;;;;;;;10.03;9.03;;;3.30;99.90;;;;;;6166831;23;20492;-79
2021/01/14 12:29:04;;;;;;;10.33;9.33;;;3.30;99.90;;;;;;6204218;23;20483;-79
2021/01/14 12:31:37;;;;;;;9.63;8.60;;;3.40;99.90;;;;;;6204924;23;20746;-79
2021/01/14 12:34:05;;;;;;;9.57;7.70;;;3.40;99.90;;;;;;6167135;23;20415;-79
2021/01/14 12:36:33;;;;;;;10.37;8.33;;;3.40;99.90;;;;;;6167393;23;20422;-79
2021/01/14 12:39:00;;;;;;;10.03;8.37;;;3.40;99.90;;;;;;6166848;23;21012;-79
2021/01/14 12:41:33;;;;;;;11.03;7.60;;;3.50;99.90;;;;;;6168287;23;20890;-79
2021/01/14 12:44:00;;;;;;;10.07;9.03;;;3.50;99.90;;;;;;6168191;23;20420;-79
2021/01/14 12:46:38;;;;;;;11.57;10.47;;;3.50;99.90;;;;;;6205554;23;20425;-79
2021/01/14 12:49:08;;;;;;;10.37;9.37;;;3.50;99.90;;;;;;6205062;23;20415;-79
2021/01/14 12:51:37;;;;;;;9.70;8.70;;;3.50;99.90;;;;;;6168482;23;20471;-79
2021/01/14 12:54:06;;;;;;;8.87;8.07;;;3.60;99.90;;;;;;6206088;23;20450;-79
2021/01/14 12:56:34;;;;;;;9.10;8.20;;;3.60;99.90;;;;;;6168945;23;20435;-79
2021/01/14 12:59:02;;;;;;;9.30;8.30;;;3.60;99.90;;;;;;6205742;23;20439;-79
2021/01/14 13:01:30;;;;;;;10.67;8.33;;;3.60;99.90;;;;;;6169191;23;20439;-79
2021/01/14 13:03:59;;;;;;;9.23;8.20;;;3.60;99.90;;;;;;6170294;23;20758;-79
2021/01/14 13:06:28;;;;;;;9.43;8.50;;;3.60;99.90;;;;;;6170348;23;20415;-79
2021/01/14 13:08:56;;;;;;;11.40;9.53;;;3.60;99.90;;;;;;6170092;23;20439;-79
2021/01/14 13:11:23;;;;;;;10.30;9.30;;;3.60;99.90;;;;;;6170765;23;20415;-79
2021/01/14 13:13:52;;;;;;;11.57;10.23;;;3.60;99.90;;;;;;6170984;23;20424;-79
2021/01/14 13:16:19;;;;;;;10.40;9.40;;;3.60;99.90;;;;;;6171149;23;20444;-79